Time;durP1;ratioP1;P1;durP2;ratioP2;P2;SDS_P1;SDS_P2;PMS_P1;PMS_P2;Temp;Humidity;BMP_temperature;BMP_pressure;BME280_temperature;BME280_humidity;BME280_pressure;Samples;Min_cycle;Max_cycle;Signal;HPM_P1;HPM_P2
2022/08/07 00:01:56;;;;;;;5.03;3.25;;;;;;;21.84;100.00;99707.86;1785506;80;21004;-77
2022/08/07 00:04:22;;;;;;;5.97;3.47;;;;;;;21.86;100.00;99707.06;1785436;80;21000;-77
2022/08/07 00:06:49;;;;;;;6.62;3.40;;;;;;;21.88;100.00;99713.96;1785499;80;21027;-77
2022/08/07 00:09:15;;;;;;;8.18;3.30;;;;;;;21.89;100.00;99708.76;1785407;80;21017;-76
2022/08/07 00:11:42;;;;;;;5.37;3.33;;;;;;;21.90;100.00;99709.06;1785257;80;21036;-76
2022/08/07 00:14:09;;;;;;;5.50;3.27;;;;;;;21.92;100.00;99713.77;1785520;80;21028;-76
2022/08/07 00:16:36;;;;;;;3.98;3.47;;;;;;;21.90;100.00;99711.81;1785031;80;21001;-76
2022/08/07 00:19:03;;;;;;;7.58;3.42;;;;;;;21.88;100.00;99713.14;1785151;80;21506;-76
2022/08/07 00:21:30;;;;;;;5.03;3.30;;;;;;;21.86;100.00;99709.81;1785130;80;21565;-76
2022/08/07 00:23:56;;;;;;;5.90;3.60;;;;;;;21.83;100.00;99710.31;1780483;80;21020;-76
2022/08/07 00:26:23;;;;;;;6.30;3.30;;;;;;;21.79;100.00;99708.61;1785233;80;21065;-76
2022/08/07 00:28:50;;;;;;;5.45;3.20;;;;;;;21.76;100.00;99713.23;1785429;80;21008;-76
2022/08/07 00:31:16;;;;;;;6.60;3.30;;;;;;;21.71;100.00;99709.03;1785474;80;21035;-76
2022/08/07 00:33:43;;;;;;;5.42;3.50;;;;;;;21.66;100.00;99705.68;1785388;80;21024;-76
2022/08/07 00:36:10;;;;;;;7.50;3.45;;;;;;;21.63;100.00;99702.59;1787533;79;21000;-76
2022/08/07 00:38:37;;;;;;;4.90;3.30;;;;;;;21.58;100.00;99703.34;1808153;79;21062;-76
2022/08/07 00:41:04;;;;;;;5.42;3.33;;;;;;;21.54;100.00;99699.44;1808524;79;21025;-76
2022/08/07 00:43:32;;;;;;;4.05;3.65;;;;;;;21.51;100.00;99698.56;1808094;79;21074;-76
2022/08/07 00:46:00;;;;;;;7.53;3.45;;;;;;;21.46;100.00;99699.86;1808269;79;21025;-76
2022/08/07 00:48:26;;;;;;;5.62;3.60;;;;;;;21.42;100.00;99703.61;1808183;79;21018;-76
2022/08/07 00:50:54;;;;;;;7.28;3.80;;;;;;;21.40;100.00;99701.66;1808546;79;21527;-76
2022/08/07 00:53:22;;;;;;;4.65;3.45;;;;;;;21.39;100.00;99700.02;1808217;79;21011;-76
2022/08/07 00:55:48;;;;;;;5.42;3.30;;;;;;;21.37;100.00;99700.27;1808452;79;21062;-76
2022/08/07 00:58:17;;;;;;;5.20;3.60;;;;;;;21.36;100.00;99701.33;1798840;79;21469;-76
2022/08/07 01:00:44;;;;;;;8.10;3.20;;;;;;;21.36;100.00;99699.13;1792148;80;21015;-76
2022/08/07 01:03:10;;;;;;;6.42;3.87;;;;;;;21.36;100.00;99700.51;1787133;80;21047;-76
2022/08/07 01:05:37;;;;;;;7.97;4.00;;;;;;;21.35;100.00;99705.16;1792158;80;20956;-76
2022/08/07 01:08:04;;;;;;;5.97;3.35;;;;;;;21.32;100.00;99704.82;1792077;80;21047;-76
2022/08/07 01:10:31;;;;;;;5.28;3.30;;;;;;;21.30;100.00;99705.09;1791984;80;20991;-76
2022/08/07 01:12:58;;;;;;;5.60;3.60;;;;;;;21.29;100.00;99706.72;1791823;80;20995;-76
2022/08/07 01:15:26;;;;;;;6.72;3.85;;;;;;;21.24;100.00;99708.28;1792052;80;21003;-76
2022/08/07 01:17:52;;;;;;;5.47;3.12;;;;;;;21.19;100.00;99712.31;1791789;80;20987;-76
2022/08/07 01:20:21;;;;;;;7.08;3.60;;;;;;;21.14;100.00;99714.15;1791882;80;21035;-76
2022/08/07 01:22:48;;;;;;;5.53;3.58;;;;;;;21.09;100.00;99708.05;1791879;80;21094;-75
2022/08/07 01:25:15;;;;;;;4.95;3.85;;;;;;;21.04;100.00;99706.58;1792152;80;21042;-76
2022/08/07 01:27:41;;;;;;;11.00;3.87;;;;;;;20.99;100.00;99701.81;1792038;80;21015;-76
2022/08/07 01:30:10;;;;;;;6.10;3.83;;;;;;;20.93;100.00;99703.34;1792141;80;21516;-76
2022/08/07 01:32:37;;;;;;;5.78;3.65;;;;;;;20.85;100.00;99704.58;1787250;80;21513;-76
2022/08/07 01:35:06;;;;;;;4.40;3.45;;;;;;;20.76;100.00;99701.41;1791976;80;21042;-76
2022/08/07 01:37:32;;;;;;;9.35;3.70;;;;;;;20.69;100.00;99699.89;1802703;79;21497;-76
2022/08/07 01:40:01;;;;;;;5.42;3.60;;;;;;;20.62;100.00;99698.66;1779299;79;21046;-76
2022/08/07 01:42:29;;;;;;;5.45;3.40;;;;;;;20.51;100.00;99694.86;1808345;79;21015;-76
2022/08/07 01:44:56;;;;;;;4.90;3.55;;;;;;;20.43;100.00;99687.00;1805585;79;21461;-76
2022/08/07 01:47:23;;;;;;;6.53;3.70;;;;;;;20.33;100.00;99690.39;1808436;79;21003;-76
2022/08/07 01:49:50;;;;;;;6.25;3.50;;;;;;;20.27;100.00;99688.09;1808254;79;20970;-76
2022/08/07 01:52:16;;;;;;;9.93;3.72;;;;;;;20.20;100.00;99686.02;1808357;79;20987;-76
2022/08/07 01:54:44;;;;;;;8.43;3.90;;;;;;;20.14;100.00;99675.17;1808201;79;21073;-76
2022/08/07 01:57:22;;;;;;;9.68;3.50;;;;;;;20.10;100.00;99682.52;1806130;79;21489;-76
2022/08/07 02:00:06;;;;;;;6.17;3.62;;;;;;;20.07;100.00;99687.66;1792076;80;21018;-76
2022/08/07 02:02:45;;;;;;;6.33;3.47;;;;;;;20.02;100.00;99681.51;1791413;80;21007;-76
2022/08/07 02:05:21;;;;;;;7.80;3.60;;;;;;;19.99;100.00;99680.64;1792051;80;21031;-76
2022/08/07 02:07:49;;;;;;;5.58;3.40;;;;;;;19.97;100.00;99692.91;1783645;80;21524;-76
2022/08/07 02:10:20;;;;;;;4.65;3.45;;;;;;;19.94;100.00;99697.51;1792054;80;20984;-76
2022/08/07 02:12:48;;;;;;;3.85;3.42;;;;;;;19.91;100.00;99693.35;1791824;80;21513;-76
2022/08/07 02:15:20;;;;;;;8.08;3.70;;;;;;;19.86;100.00;99688.58;1791429;80;21015;-76
2022/08/07 02:17:47;;;;;;;5.28;3.50;;;;;;;19.82;100.00;99688.77;1792050;80;21031;-76
2022/08/07 02:20:14;;;;;;;5.30;3.50;;;;;;;19.76;100.00;99687.00;1784731;80;21531;-76
2022/08/07 02:22:40;;;;;;;5.35;3.45;;;;;;;19.71;100.00;99686.30;1768603;81;21574;-76
2022/08/07 02:25:09;;;;;;;5.90;3.67;;;;;;;19.67;100.00;99685.64;1768940;81;20984;-76
2022/08/07 02:27:36;;;;;;;6.83;3.77;;;;;;;19.62;100.00;99686.89;1766103;80;21030;-77
2022/08/07 02:30:04;;;;;;;6.47;3.60;;;;;;;19.56;100.00;99681.83;1768799;81;21017;-76
2022/08/07 02:32:35;;;;;;;5.62;3.60;;;;;;;19.51;100.00;99685.83;1768772;81;21049;-76
2022/08/07 02:35:03;;;;;;;9.95;3.75;;;;;;;19.46;100.00;99678.84;1768767;81;20986;-76
2022/08/07 02:37:32;;;;;;;6.72;3.40;;;;;;;19.45;100.00;99675.83;1780839;80;20931;-76
2022/08/07 02:39:59;;;;;;;7.92;3.15;;;;;;;19.44;100.00;99690.08;1787476;80;21503;-76
2022/08/07 02:42:28;;;;;;;5.78;3.20;;;;;;;19.47;100.00;99687.38;1787200;80;21057;-76
2022/08/07 02:44:55;;;;;;;7.58;3.25;;;;;;;19.48;100.00;99693.17;1787125;80;21006;-76
2022/08/07 02:47:23;;;;;;;7.30;3.33;;;;;;;19.50;100.00;99693.23;1761538;80;21046;-76
2022/08/07 02:49:52;;;;;;;6.10;3.25;;;;;;;19.51;100.00;99698.16;1724144;83;21011;-76
2022/08/07 02:52:27;;;;;;;5.20;3.45;;;;;;;19.52;100.00;99697.93;1724439;83;21543;-76
2022/08/07 02:54:54;;;;;;;6.17;3.20;;;;;;;19.52;100.00;99689.70;1724374;83;21480;-76
2022/08/07 02:57:20;;;;;;;5.17;3.60;;;;;;;19.50;100.00;99685.00;1719181;83;20942;-76
2022/08/07 02:59:49;;;;;;;6.45;3.20;;;;;;;19.49;100.00;99692.09;1694992;85;21044;-76
2022/08/07 03:02:17;;;;;;;5.90;3.42;;;;;;;19.48;100.00;99690.44;1695382;85;20989;-76
2022/08/07 03:04:44;;;;;;;4.40;3.08;;;;;;;19.49;100.00;99694.83;1695131;85;21069;-76
2022/08/07 03:07:11;;;;;;;7.90;3.30;;;;;;;19.48;100.00;99698.66;1695307;85;21535;-77
2022/08/07 03:09:40;;;;;;;4.28;3.20;;;;;;;19.46;100.00;99691.19;1671164;85;21029;-76
2022/08/07 03:12:07;;;;;;;6.15;3.12;;;;;;;19.48;100.00;99689.89;1695465;85;21475;-77
2022/08/07 03:14:35;;;;;;;6.15;3.10;;;;;;;19.51;100.00;99697.65;1694965;85;21045;-77
2022/08/07 03:17:03;;;;;;;7.58;3.30;;;;;;;19.57;100.00;99696.40;1695311;85;20967;-76
2022/08/07 03:19:29;;;;;;;5.17;3.62;;;;;;;19.63;100.00;99705.03;1664090;85;21491;-77
2022/08/07 03:21:58;;;;;;;5.92;3.37;;;;;;;19.66;100.00;99704.56;1705863;83;21049;-76
2022/08/07 03:24:25;;;;;;;7.92;3.33;;;;;;;19.71;100.00;99710.17;1653541;87;21548;-76
2022/08/07 03:26:51;;;;;;;5.95;3.62;;;;;;;19.73;100.00;99706.13;1610386;88;21065;-77
2022/08/07 03:29:18;;;;;;;5.58;3.52;;;;;;;19.76;100.00;99708.95;1638727;86;21044;-76
2022/08/07 03:31:46;;;;;;;6.00;3.40;;;;;;;19.77;100.00;99709.22;1653444;87;21091;-76
2022/08/07 03:34:16;;;;;;;5.58;3.33;;;;;;;19.75;100.00;99713.30;1630154;87;21533;-76
2022/08/07 03:36:43;;;;;;;8.55;3.50;;;;;;;19.78;100.00;99716.39;1648984;87;21503;-76
2022/08/07 03:39:11;;;;;;;7.80;3.30;;;;;;;19.81;100.00;99718.63;1639487;87;21037;-77
2022/08/07 03:41:38;;;;;;;6.67;3.37;;;;;;;19.83;100.00;99717.02;1617208;87;21068;-76
2022/08/07 03:44:05;;;;;;;8.30;3.50;;;;;;;19.82;100.00;99717.58;1639437;87;21013;-76
2022/08/07 03:46:33;;;;;;;9.98;3.45;;;;;;;19.82;100.00;99711.26;1617323;87;21147;-77
2022/08/07 03:49:00;;;;;;;6.62;3.37;;;;;;;19.81;100.00;99713.14;1639441;87;21037;-76
2022/08/07 03:51:28;;;;;;;5.80;3.20;;;;;;;19.83;100.00;99713.77;1639471;87;21074;-76
2022/08/07 03:53:55;;;;;;;6.53;3.25;;;;;;;19.87;100.00;99719.61;1730302;82;21028;-76
2022/08/07 03:56:22;;;;;;;5.25;3.77;;;;;;;19.91;100.00;99724.36;1808025;79;20979;-77
2022/08/07 03:58:49;;;;;;;9.50;3.50;;;;;;;19.96;100.00;99725.02;1790129;79;21044;-76
2022/08/07 04:01:17;;;;;;;5.15;3.10;;;;;;;20.01;100.00;99723.77;1785566;80;20986;-76
2022/08/07 04:03:45;;;;;;;7.97;3.62;;;;;;;20.08;100.00;99725.84;1785787;80;21016;-77
2022/08/07 04:06:11;;;;;;;5.37;3.40;;;;;;;20.17;100.00;99730.42;1785197;80;21032;-76
2022/08/07 04:08:39;;;;;;;9.10;3.62;;;;;;;20.27;100.00;99738.88;1785466;80;21071;-76
2022/08/07 04:11:07;;;;;;;5.65;3.70;;;;;;;20.38;100.00;99742.66;1785447;80;21534;-76
2022/08/07 04:13:34;;;;;;;5.87;3.25;;;;;;;20.47;100.00;99741.75;1785225;80;21537;-76
2022/08/07 04:16:02;;;;;;;4.87;3.33;;;;;;;20.56;100.00;99745.77;1754988;80;21060;-77
2022/08/07 04:18:29;;;;;;;5.17;3.47;;;;;;;20.62;100.00;99746.19;1785369;80;21064;-76
2022/08/07 04:20:56;;;;;;;5.95;3.22;;;;;;;20.68;100.00;99744.37;1785138;80;21008;-77
2022/08/07 04:23:24;;;;;;;5.37;3.20;;;;;;;20.78;100.00;99745.12;1785238;80;21067;-76
2022/08/07 04:25:52;;;;;;;8.55;3.10;;;;;;;20.88;100.00;99741.74;1785752;80;21024;-76
2022/08/07 04:28:19;;;;;;;5.50;3.30;;;;;;;20.98;100.00;99753.75;1785804;80;21498;-76
2022/08/07 04:30:48;;;;;;;7.45;3.33;;;;;;;21.10;100.00;99764.67;1785434;80;21063;-77
2022/08/07 04:33:20;;;;;;;9.38;3.50;;;;;;;21.20;100.00;99763.48;1784034;80;21020;-76
2022/08/07 04:35:48;;;;;;;6.35;3.40;;;;;;;21.30;100.00;99765.59;1784353;80;20991;-76
2022/08/07 04:38:15;;;;;;;9.53;3.80;;;;;;;21.39;100.00;99774.27;1754817;80;20971;-76
2022/08/07 04:40:44;;;;;;;6.47;3.50;;;;;;;21.48;100.00;99774.17;1753507;82;21058;-76
2022/08/07 04:43:13;;;;;;;7.20;3.62;;;;;;;21.57;100.00;99782.30;1753352;82;20996;-76
2022/08/07 04:46:12;;;;;;;6.33;3.72;;;;;;;21.68;100.00;99799.80;1729137;82;20983;-76
2022/08/07 04:49:10;;;;;;;10.72;3.17;;;;;;;21.85;100.00;99802.56;1753464;82;21492;-76
2022/08/07 04:51:52;;;;;;;7.20;3.30;;;;;;;22.06;100.00;99809.73;1753484;82;21003;-76
2022/08/07 04:54:45;;;;;;;10.00;3.52;;;;;;;22.28;100.00;99809.83;1753490;82;21019;-76
2022/08/07 04:57:26;;;;;;;7.15;3.50;;;;;;;22.47;100.00;99807.58;1753471;81;20947;-76
2022/08/07 05:00:05;;;;;;;6.00;3.40;;;;;;;22.69;100.00;99813.11;1753371;82;21066;-76
2022/08/07 05:02:43;;;;;;;10.03;3.60;;;;;;;22.90;100.00;99813.64;1753647;82;20955;-76
2022/08/07 05:05:24;;;;;;;4.47;3.17;;;;;;;23.09;100.00;99818.30;1753486;82;21042;-76
2022/08/07 05:08:23;;;;;;;4.33;2.85;;;;;;;23.27;100.00;99828.13;1753389;82;21030;-76
2022/08/07 05:10:55;;;;;;;7.05;3.50;;;;;;;23.50;100.00;99827.53;1753527;82;21168;-76
2022/08/07 05:13:35;;;;;;;8.03;3.40;;;;;;;23.73;100.00;99840.67;1645182;87;21084;-76
2022/08/07 05:16:06;;;;;;;9.43;3.70;;;;;;;23.90;100.00;99843.34;1582028;90;21050;-76
2022/08/07 05:18:37;;;;;;;6.28;3.20;;;;;;;24.08;100.00;99845.67;1582240;91;21552;-76
2022/08/07 05:21:08;;;;;;;7.92;3.22;;;;;;;24.23;100.00;99844.97;1551688;92;21052;-76
2022/08/07 05:23:40;;;;;;;8.38;3.30;;;;;;;24.40;100.00;99848.92;1553558;92;21092;-76
2022/08/07 05:26:12;;;;;;;10.40;3.35;;;;;;;24.57;100.00;99857.89;1554177;92;21080;-76
2022/08/07 05:28:38;;;;;;;12.98;3.50;;;;;;;24.71;100.00;99857.42;1553709;92;21075;-76
2022/08/07 05:31:06;;;;;;;9.53;3.58;;;;;;;24.82;100.00;99859.98;1554353;91;21157;-76
2022/08/07 05:33:34;;;;;;;6.33;3.20;;;;;;;24.93;100.00;99856.70;1532756;94;21101;-76
2022/08/07 05:36:00;;;;;;;8.18;3.40;;;;;;;25.09;100.00;99857.58;1532896;94;21090;-76
2022/08/07 05:38:27;;;;;;;6.33;3.50;;;;;;;25.21;100.00;99865.62;1516696;95;21115;-76
2022/08/07 05:40:54;;;;;;;7.17;3.20;;;;;;;25.28;100.00;99864.84;1516769;95;21094;-76
2022/08/07 05:43:22;;;;;;;6.65;3.50;;;;;;;25.35;100.00;99870.94;1516779;95;21132;-76
2022/08/07 05:45:49;;;;;;;11.50;4.15;;;;;;;25.44;100.00;99870.41;1516761;95;21165;-76
2022/08/07 05:48:18;;;;;;;7.65;3.58;;;;;;;25.52;100.00;99868.50;1516799;95;21609;-76
2022/08/07 05:50:45;;;;;;;9.95;3.50;;;;;;;25.64;100.00;99867.69;1516791;95;21146;-76
2022/08/07 05:53:13;;;;;;;5.50;3.00;;;;;;;25.76;100.00;99871.02;1516854;95;21588;-76
2022/08/07 05:55:40;;;;;;;5.92;3.60;;;;;;;25.84;100.00;99876.55;1516763;95;21102;-77
2022/08/07 05:58:07;;;;;;;5.97;3.20;;;;;;;25.91;100.00;99870.18;1529070;93;21505;-76
2022/08/07 06:00:34;;;;;;;7.40;3.58;;;;;;;26.02;100.00;99871.03;1541525;93;21170;-76
2022/08/07 06:03:01;;;;;;;8.15;3.47;;;;;;;26.15;100.00;99871.02;1522373;93;21039;-77
2022/08/07 06:05:30;;;;;;;10.98;3.90;;;;;;;26.28;100.00;99873.23;1541560;93;21099;-76
2022/08/07 06:07:59;;;;;;;5.58;3.37;;;;;;;26.42;100.00;99880.42;1538796;93;21092;-76
2022/08/07 06:10:27;;;;;;;8.58;3.40;;;;;;;26.59;100.00;99877.88;1544137;93;21047;-76
2022/08/07 06:12:54;;;;;;;5.17;3.40;;;;;;;26.77;100.00;99883.39;1575251;90;21567;-77
2022/08/07 06:15:20;;;;;;;6.58;3.30;;;;;;;26.93;100.00;99885.55;1641366;86;21055;-76
2022/08/07 06:17:48;;;;;;;7.75;3.60;;;;;;;27.14;100.00;99880.74;1725927;83;21042;-76
2022/08/07 06:20:14;;;;;;;10.08;3.85;;;;;;;27.34;100.00;99883.98;1730176;83;21535;-76
2022/08/07 06:22:42;;;;;;;4.87;3.58;;;;;;;27.51;100.00;99880.27;1758616;81;21063;-77
2022/08/07 06:25:16;;;;;;;7.72;3.47;;;;;;;27.67;100.00;99883.78;1755886;81;21364;-77
2022/08/07 06:27:43;;;;;;;7.87;3.40;;;;;;;27.79;100.00;99889.80;1760512;81;21576;-77
2022/08/07 06:30:10;;;;;;;10.13;3.47;;;;;;;27.91;100.00;99884.48;1760893;81;20995;-76
2022/08/07 06:32:38;;;;;;;5.10;3.50;;;;;;;28.05;100.00;99884.08;1760594;81;21033;-77
2022/08/07 06:35:06;;;;;;;6.90;3.75;;;;;;;28.18;100.00;99880.61;1731313;81;21020;-77
2022/08/07 06:37:32;;;;;;;8.70;3.77;;;;;;;28.33;100.00;99881.58;1792051;79;21508;-77
2022/08/07 06:39:59;;;;;;;9.35;3.37;;;;;;;28.53;100.00;99874.99;1808181;79;21063;-77
2022/08/07 06:42:32;;;;;;;8.10;3.80;;;;;;;28.75;100.00;99876.69;1808735;79;20999;-77
2022/08/07 06:45:06;;;;;;;7.22;3.92;;;;;;;28.98;100.00;99881.16;1804117;79;20987;-77
2022/08/07 06:47:33;;;;;;;8.13;3.55;;;;;;;29.19;100.00;99875.36;1808420;79;20999;-77
2022/08/07 06:50:00;;;;;;;8.85;3.60;;;;;;;29.44;100.00;99879.73;1766385;79;21050;-77
2022/08/07 06:52:31;;;;;;;6.78;3.98;;;;;;;29.50;100.00;99882.69;1750087;82;21083;-77
2022/08/07 06:54:57;;;;;;;9.35;3.75;;;;;;;29.49;100.00;99886.05;1751603;81;20989;-77
2022/08/07 06:57:24;;;;;;;6.70;3.90;;;;;;;29.53;100.00;99888.52;1751171;81;21512;-77
2022/08/07 06:59:51;;;;;;;6.65;3.52;;;;;;;29.49;100.00;99894.41;1748462;82;21005;-77
2022/08/07 07:02:20;;;;;;;6.28;3.60;;;;;;;29.39;100.00;99892.34;1785966;80;21035;-77
2022/08/07 07:04:47;;;;;;;7.95;3.60;;;;;;;29.42;100.00;99891.17;1786121;80;21004;-77
2022/08/07 07:07:14;;;;;;;6.83;3.85;;;;;;;29.52;100.00;99888.24;1786035;80;21032;-77
2022/08/07 07:09:47;;;;;;;4.85;3.50;;;;;;;29.67;100.00;99891.34;1785709;80;21060;-77
2022/08/07 07:12:31;;;;;;;8.88;3.52;;;;;;;29.83;100.00;99896.14;1748855;81;21019;-77
2022/08/07 07:15:09;;;;;;;6.62;3.70;;;;;;;30.03;100.00;99897.78;1744951;82;21018;-77
2022/08/07 07:17:59;;;;;;;12.25;3.60;;;;;;;30.26;100.00;99902.11;1748670;82;21065;-77
2022/08/07 07:20:40;;;;;;;8.85;4.22;;;;;;;30.52;100.00;99901.69;1749165;81;21014;-77
2022/08/07 07:23:07;;;;;;;7.90;4.17;;;;;;;30.72;100.00;99897.67;1731609;83;21034;-77
2022/08/07 07:25:34;;;;;;;7.70;3.67;;;;;;;30.91;100.00;99895.60;1731958;83;21001;-78
2022/08/07 07:28:19;;;;;;;6.92;3.83;;;;;;;31.19;100.00;99897.02;1731880;83;21170;-77
2022/08/07 07:30:56;;;;;;;8.60;3.58;;;;;;;31.48;100.00;99899.42;1731624;83;21012;-78
2022/08/07 07:33:22;;;;;;;6.03;4.00;;;;;;;31.81;100.00;99888.65;1732072;83;21499;-76
2022/08/07 07:35:50;;;;;;;5.55;3.33;;;;;;;32.15;100.00;99892.28;1731979;83;21033;-77
2022/08/07 07:38:18;;;;;;;7.95;3.60;;;;;;;32.41;100.00;99903.63;1759940;81;21046;-77
2022/08/07 07:40:46;;;;;;;6.28;3.42;;;;;;;32.55;100.00;99903.53;1760610;81;21028;-76
2022/08/07 07:43:14;;;;;;;6.60;3.45;;;;;;;32.55;100.00;99901.55;1760440;81;21189;-76
2022/08/07 07:45:40;;;;;;;9.25;4.00;;;;;;;32.68;100.00;99900.41;1760735;81;21001;-77
2022/08/07 07:48:09;;;;;;;10.35;3.58;;;;;;;32.84;100.00;99901.61;1760399;81;21017;-77
2022/08/07 07:50:36;;;;;;;7.50;3.70;;;;;;;32.90;100.00;99900.33;1760589;81;21028;-77
2022/08/07 07:53:03;;;;;;;8.53;3.55;;;;;;;32.98;100.00;99896.48;1760665;81;21002;-77
2022/08/07 07:55:30;;;;;;;5.83;3.75;;;;;;;32.90;100.00;99896.13;1760456;81;21069;-77
2022/08/07 07:57:57;;;;;;;8.00;3.60;;;;;;;32.89;100.00;99896.45;1763631;81;21053;-77
2022/08/07 08:00:25;;;;;;;7.35;3.37;;;;;;;32.91;100.00;99902.55;1768455;81;21009;-76
2022/08/07 08:02:53;;;;;;;7.62;3.30;;;;;;;32.91;100.00;99899.75;1768367;81;21022;-76
2022/08/07 08:05:19;;;;;;;4.85;3.30;;;;;;;33.10;100.00;99901.70;1768179;81;21006;-77
2022/08/07 08:07:46;;;;;;;5.35;3.02;;;;;;;33.31;100.00;99903.92;1768344;81;21581;-76
2022/08/07 08:10:13;;;;;;;7.85;3.22;;;;;;;33.55;100.00;99903.44;1768101;81;21041;-76
2022/08/07 08:12:39;;;;;;;5.10;2.90;;;;;;;33.82;100.00;99914.95;1768413;81;21009;-78
2022/08/07 08:15:08;;;;;;;7.53;2.50;;;;;;;33.88;91.53;99914.20;1768341;81;21002;-76
2022/08/07 08:17:34;;;;;;;6.25;2.58;;;;;;;33.78;83.22;99913.94;1768404;81;21459;-77
2022/08/07 08:20:07;;;;;;;4.78;2.45;;;;;;;33.55;75.56;99911.84;1786365;80;21112;-77
2022/08/07 08:28:21;;;;;;;10.05;2.67;;;;;;;33.22;81.55;99909.52;1670435;85;21542;-76
2022/08/07 08:30:49;;;;;;;4.67;2.90;;;;;;;33.46;89.37;99906.23;1670448;86;20997;-76
2022/08/07 08:33:17;;;;;;;5.65;2.72;;;;;;;33.60;79.01;99908.88;1670124;86;21036;-76
2022/08/07 08:35:48;;;;;;;7.17;2.90;;;;;;;33.70;81.22;99904.13;1670369;86;21062;-75
2022/08/07 08:38:17;;;;;;;5.22;2.65;;;;;;;33.90;80.30;99904.88;1662928;86;21032;-77
2022/08/07 08:41:01;;;;;;;6.08;2.87;;;;;;;34.15;79.66;99900.97;1662296;86;21033;-75
2022/08/07 08:43:54;;;;;;;5.65;2.70;;;;;;;34.31;76.37;99908.30;1614242;89;21086;-76
2022/08/07 08:46:27;;;;;;;;;;;;;;;34.38;76.48;99897.39;1616595;89;21573;-75
2022/08/07 08:49:08;;;;;;;5.20;2.42;;;;;;;34.50;69.13;99899.51;1560141;92;20213;-75
2022/08/07 08:51:56;;;;;;;5.80;2.80;;;;;;;34.63;67.77;99899.85;1557385;92;21064;-75
2022/08/07 08:54:34;;;;;;;5.70;2.65;;;;;;;34.85;73.25;99900.22;1495404;96;21278;-75
2022/08/07 08:57:05;;;;;;;5.60;2.77;;;;;;;35.25;81.25;99901.83;1460079;98;21078;-76
2022/08/07 08:59:52;;;;;;;5.75;2.58;;;;;;;35.53;65.65;99898.72;1440072;100;21636;-76
2022/08/07 09:02:39;;;;;;;4.50;2.50;;;;;;;35.67;65.73;99906.88;1440081;100;21691;-76
2022/08/07 09:05:38;;;;;;;7.22;2.50;;;;;;;35.84;64.92;99903.14;1440262;100;21111;-76
2022/08/07 09:08:23;;;;;;;9.95;2.90;;;;;;;35.90;55.86;99896.72;1439921;100;21695;-76
2022/08/07 09:11:11;;;;;;;4.40;3.10;;;;;;;35.75;56.54;99899.56;1460866;98;21134;-76
2022/08/07 09:14:15;;;;;;;11.45;4.50;;;;;;;35.84;59.96;99898.92;1399565;102;21216;-75
2022/08/07 09:16:56;;;;;;;11.65;4.83;;;;;;;36.11;65.07;99897.48;1400236;102;21669;-77
2022/08/07 09:20:01;;;;;;;7.03;2.95;;;;;;;36.47;60.15;99899.36;1411264;101;21083;-76
2022/08/07 09:22:48;;;;;;;4.58;2.00;;;;;;;36.42;49.52;99896.18;1435816;99;21236;-76
2022/08/07 09:25:28;;;;;;;5.85;2.27;;;;;;;36.23;45.41;99895.90;1434177;98;21634;-76
2022/08/07 09:28:05;;;;;;;9.65;3.00;;;;;;;36.17;43.11;99889.64;1422404;101;21105;-76
2022/08/07 09:30:44;;;;;;;4.40;2.00;;;;;;;36.19;47.33;99894.93;1455622;99;21075;-76
2022/08/07 09:33:22;;;;;;;5.15;2.20;;;;;;;36.38;47.46;99893.83;1430926;100;21147;-76
2022/08/07 09:36:13;;;;;;;5.75;2.10;;;;;;;36.60;48.43;99894.00;1422160;101;21610;-76
2022/08/07 09:38:54;;;;;;;4.03;2.22;;;;;;;36.81;46.69;99893.94;1400185;100;21659;-76
2022/08/07 09:41:45;;;;;;;4.15;2.27;;;;;;;36.85;43.33;99889.23;1400110;102;21657;-77
2022/08/07 09:44:54;;;;;;;6.15;2.17;;;;;;;36.79;45.16;99893.44;1400244;102;21656;-77
2022/08/07 09:47:47;;;;;;;4.35;2.45;;;;;;;36.93;47.58;99891.68;1455887;96;21084;-76
2022/08/07 09:50:17;;;;;;;;;;;;;;;37.01;47.15;99887.12;1504030;96;21546;-76
2022/08/07 09:53:01;;;;;;;4.62;2.02;;;;;;;37.09;48.80;99887.56;1501760;96;20121;-76
2022/08/07 09:55:57;;;;;;;6.42;2.05;;;;;;;37.09;45.25;99887.56;1501828;96;21574;-76
2022/08/07 09:58:43;;;;;;;5.72;1.82;;;;;;;36.91;40.64;99890.41;1514308;94;21033;-76
2022/08/07 10:01:49;;;;;;;7.50;2.40;;;;;;;36.53;41.24;99888.13;1529189;94;21148;-76
2022/08/07 10:04:33;;;;;;;5.08;2.10;;;;;;;36.26;42.53;99887.58;1526066;93;21087;-76
2022/08/07 10:07:47;;;;;;;7.75;2.30;;;;;;;36.02;43.40;99888.91;1546556;93;21603;-76
2022/08/07 10:10:35;;;;;;;5.50;2.00;;;;;;;35.87;44.45;99893.17;1546681;93;21050;-76
2022/08/07 10:13:34;;;;;;;6.05;2.33;;;;;;;35.89;46.42;99890.28;1476367;92;21160;-75
2022/08/07 10:16:19;;;;;;;6.53;2.30;;;;;;;36.13;47.73;99890.11;1474284;97;21592;-76
2022/08/07 10:19:09;;;;;;;4.47;2.12;;;;;;;36.16;45.58;99887.17;1472476;96;21596;-76
2022/08/07 10:22:13;;;;;;;4.75;2.20;;;;;;;36.11;46.53;99877.79;1473011;97;21099;-76
2022/08/07 10:25:03;;;;;;;4.25;2.33;;;;;;;36.05;45.81;99882.01;1511795;92;21163;-76
2022/08/07 10:27:54;;;;;;;3.10;2.20;;;;;;;36.09;48.33;99887.77;1526983;94;21091;-77
2022/08/07 10:31:01;;;;;;;6.65;2.50;;;;;;;36.08;44.56;99881.89;1533300;94;21100;-76
2022/08/07 10:33:40;;;;;;;4.75;2.62;;;;;;;36.15;48.98;99878.52;1533366;94;21135;-76
2022/08/07 10:36:21;;;;;;;6.08;2.47;;;;;;;36.41;47.58;99876.84;1532981;94;21064;-77
2022/08/07 10:39:15;;;;;;;4.70;2.12;;;;;;;36.47;43.68;99874.03;1531927;93;21092;-76
2022/08/07 10:41:47;;;;;;;6.25;2.62;;;;;;;36.31;42.17;99878.11;1508787;92;21107;-76
2022/08/07 10:44:36;;;;;;;;;;;;;;;36.22;46.19;99878.20;1511412;95;21099;-76
2022/08/07 10:47:32;;;;;;;4.03;2.00;;;;;;;36.23;41.96;99877.61;1506311;95;20112;-76
2022/08/07 10:50:13;;;;;;;10.43;2.60;;;;;;;36.04;41.29;99875.32;1529597;92;21082;-75
2022/08/07 10:53:11;;;;;;;4.53;2.00;;;;;;;35.96;42.03;99874.81;1561364;92;21038;-75
2022/08/07 10:55:52;;;;;;;3.42;1.92;;;;;;;36.02;45.48;99872.84;1591908;88;21129;-76
2022/08/07 10:58:54;;;;;;;5.10;2.33;;;;;;;36.23;44.06;99867.76;1634319;87;21111;-76
2022/08/07 11:01:46;;;;;;;3.40;2.15;;;;;;;36.44;46.05;99868.52;1631955;88;21134;-76
2022/08/07 11:04:36;;;;;;;4.12;2.35;;;;;;;36.59;40.63;99868.41;1634032;88;21060;-76
2022/08/07 11:07:36;;;;;;;4.20;2.30;;;;;;;36.52;41.22;99861.13;1628616;88;21063;-76
2022/08/07 11:10:11;;;;;;;3.55;2.45;;;;;;;36.64;45.41;99869.59;1633961;88;21580;-76
2022/08/07 11:12:49;;;;;;;4.50;2.27;;;;;;;36.72;41.62;99860.00;1634112;88;21064;-76
2022/08/07 11:15:21;;;;;;;6.25;2.22;;;;;;;36.67;43.55;99863.27;1634077;88;21095;-76
2022/08/07 11:18:10;;;;;;;5.92;2.40;;;;;;;36.70;38.48;99861.75;1633723;88;21072;-76
2022/08/07 11:21:24;;;;;;;3.17;2.10;;;;;;;36.63;40.48;99864.30;1744015;82;21012;-76
2022/08/07 11:24:08;;;;;;;7.00;2.15;;;;;;;36.64;40.81;99855.51;1735769;82;21026;-77
2022/08/07 11:26:52;;;;;;;3.95;2.12;;;;;;;36.69;39.45;99857.31;1730972;83;21046;-77
2022/08/07 11:29:55;;;;;;;4.25;1.70;;;;;;;36.48;37.80;99857.38;1734704;83;21031;-76
2022/08/07 11:32:39;;;;;;;5.85;2.20;;;;;;;36.32;38.74;99857.80;1735090;83;21069;-76
2022/08/07 11:35:10;;;;;;;4.92;2.40;;;;;;;36.38;39.31;99860.65;1734808;83;21034;-76
2022/08/07 11:37:45;;;;;;;3.17;1.90;;;;;;;36.35;39.79;99857.12;1755451;81;21004;-76
2022/08/07 11:40:52;;;;;;;5.47;2.20;;;;;;;36.45;44.69;99860.89;1762333;81;21028;-76
2022/08/07 11:43:57;;;;;;;4.53;1.98;;;;;;;36.70;44.17;99850.48;1765037;81;21090;-75
2022/08/07 11:46:51;;;;;;;4.25;1.72;;;;;;;36.86;39.65;99845.78;1765024;81;21004;-76
2022/08/07 11:49:55;;;;;;;6.17;2.02;;;;;;;37.01;40.29;99841.44;1761086;81;21046;-76
2022/08/07 11:52:50;;;;;;;5.83;1.95;;;;;;;37.17;36.47;99839.34;1764883;81;21004;-76
2022/08/07 11:55:48;;;;;;;4.10;2.10;;;;;;;36.95;37.59;99837.80;1702014;84;21066;-76
2022/08/07 11:58:56;;;;;;;6.30;2.08;;;;;;;36.90;38.02;99832.41;1698856;84;21078;-75
2022/08/07 12:01:32;;;;;;;6.15;2.08;;;;;;;37.01;38.64;99832.98;1702269;84;21159;-77
2022/08/07 12:04:37;;;;;;;4.30;2.20;;;;;;;37.19;36.69;99829.94;1699663;84;21038;-76
2022/08/07 12:07:12;;;;;;;3.12;1.80;;;;;;;37.23;37.76;99834.48;1701920;84;21014;-76